<?xml version="1.0" encoding="UTF-8" standalone="no" ?>
<gpx xmlns="http://www.topografix.com/GPX/1/1" xmlns:xsi="http://www.w3.org/2001/XMLSchema-instance" xsi:schemaLocation="http://www.topografix.com/GPX/1/1 http://www.topografix.com/GPX/1/1/gpx.xsd" version="1.1" creator="VisuGPX - https://www.visugpx.com">
  <metadata>
    <name>Grand Duc Relais 1</name>
    <desc><![CDATA[Premier relais du Grand Duc 2016]]></desc>
  </metadata>
  <trk>
    <name><![CDATA[--Saint-Hilaire-- OR-5916847:GD-Relais 1]]></name>
    <trkseg>
      <trkpt lat="45.30287" lon="5.87993">
        <ele>1013</ele>
        <time>2016-04-06T16:15:06Z</time>
      </trkpt>
      <trkpt lat="45.30339" lon="5.87904">
        <ele>1013</ele>
        <time>2016-04-06T16:17:06Z</time>
      </trkpt>
      <trkpt lat="45.3036" lon="5.87932">
        <ele>1012</ele>
        <time>2016-04-06T16:19:06Z</time>
      </trkpt>
      <trkpt lat="45.30382" lon="5.87962">
        <ele>1009</ele>
        <time>2016-04-06T16:21:06Z</time>
      </trkpt>
      <trkpt lat="45.30403" lon="5.87978">
        <ele>1007</ele>
        <time>2016-04-06T16:23:06Z</time>
      </trkpt>
      <trkpt lat="45.30418" lon="5.8799">
        <ele>1005</ele>
        <time>2016-04-06T16:25:06Z</time>
      </trkpt>
      <trkpt lat="45.30427" lon="5.87998">
        <ele>1004</ele>
        <time>2016-04-06T16:27:06Z</time>
      </trkpt>
      <trkpt lat="45.30437" lon="5.88012">
        <ele>1002</ele>
        <time>2016-04-06T16:29:06Z</time>
      </trkpt>
      <trkpt lat="45.30448" lon="5.88021">
        <ele>1001</ele>
        <time>2016-04-06T16:31:06Z</time>
      </trkpt>
      <trkpt lat="45.30458" lon="5.88036">
        <ele>998</ele>
        <time>2016-04-06T16:33:06Z</time>
      </trkpt>
      <trkpt lat="45.30468" lon="5.88051">
        <ele>996</ele>
        <time>2016-04-06T16:35:06Z</time>
      </trkpt>
      <trkpt lat="45.30486" lon="5.88068">
        <ele>992</ele>
        <time>2016-04-06T16:37:06Z</time>
      </trkpt>
      <trkpt lat="45.30506" lon="5.88093">
        <ele>987</ele>
        <time>2016-04-06T16:39:06Z</time>
      </trkpt>
      <trkpt lat="45.3052" lon="5.88106">
        <ele>984</ele>
        <time>2016-04-06T16:41:06Z</time>
      </trkpt>
      <trkpt lat="45.30534" lon="5.88121">
        <ele>980</ele>
        <time>2016-04-06T16:43:06Z</time>
      </trkpt>
      <trkpt lat="45.30548" lon="5.88121">
        <ele>979</ele>
        <time>2016-04-06T16:45:06Z</time>
      </trkpt>
      <trkpt lat="45.30569" lon="5.8811">
        <ele>977</ele>
        <time>2016-04-06T16:47:06Z</time>
      </trkpt>
      <trkpt lat="45.30584" lon="5.88104">
        <ele>976</ele>
        <time>2016-04-06T16:49:06Z</time>
      </trkpt>
      <trkpt lat="45.30619" lon="5.88111">
        <ele>975</ele>
        <time>2016-04-06T16:51:06Z</time>
      </trkpt>
      <trkpt lat="45.30639" lon="5.88111">
        <ele>975</ele>
        <time>2016-04-06T16:53:06Z</time>
      </trkpt>
      <trkpt lat="45.3066" lon="5.88122">
        <ele>973</ele>
        <time>2016-04-06T16:55:06Z</time>
      </trkpt>
      <trkpt lat="45.30676" lon="5.88126">
        <ele>974</ele>
        <time>2016-04-06T16:57:06Z</time>
      </trkpt>
      <trkpt lat="45.30688" lon="5.88134">
        <ele>975</ele>
        <time>2016-04-06T16:59:06Z</time>
      </trkpt>
      <trkpt lat="45.30698" lon="5.88145">
        <ele>975</ele>
        <time>2016-04-06T17:01:06Z</time>
      </trkpt>
      <trkpt lat="45.30705" lon="5.88164">
        <ele>973</ele>
        <time>2016-04-06T17:03:06Z</time>
      </trkpt>
      <trkpt lat="45.30714" lon="5.88195">
        <ele>970</ele>
        <time>2016-04-06T17:05:06Z</time>
      </trkpt>
      <trkpt lat="45.30732" lon="5.88225">
        <ele>969</ele>
        <time>2016-04-06T17:07:06Z</time>
      </trkpt>
      <trkpt lat="45.30748" lon="5.88238">
        <ele>969</ele>
        <time>2016-04-06T17:09:06Z</time>
      </trkpt>
      <trkpt lat="45.30763" lon="5.88261">
        <ele>970</ele>
        <time>2016-04-06T17:11:06Z</time>
      </trkpt>
      <trkpt lat="45.30771" lon="5.88287">
        <ele>969</ele>
        <time>2016-04-06T17:13:06Z</time>
      </trkpt>
      <trkpt lat="45.30784" lon="5.88319">
        <ele>968</ele>
        <time>2016-04-06T17:15:06Z</time>
      </trkpt>
      <trkpt lat="45.30797" lon="5.88333">
        <ele>968</ele>
        <time>2016-04-06T17:17:06Z</time>
      </trkpt>
      <trkpt lat="45.30805" lon="5.88348">
        <ele>968</ele>
        <time>2016-04-06T17:19:06Z</time>
      </trkpt>
      <trkpt lat="45.30821" lon="5.88369">
        <ele>969</ele>
        <time>2016-04-06T17:21:06Z</time>
      </trkpt>
      <trkpt lat="45.30837" lon="5.88414">
        <ele>966</ele>
        <time>2016-04-06T17:23:06Z</time>
      </trkpt>
      <trkpt lat="45.30851" lon="5.88449">
        <ele>966</ele>
        <time>2016-04-06T17:25:06Z</time>
      </trkpt>
      <trkpt lat="45.30865" lon="5.88481">
        <ele>965</ele>
        <time>2016-04-06T17:27:06Z</time>
      </trkpt>
      <trkpt lat="45.30886" lon="5.88539">
        <ele>964</ele>
        <time>2016-04-06T17:29:06Z</time>
      </trkpt>
      <trkpt lat="45.30904" lon="5.88572">
        <ele>965</ele>
        <time>2016-04-06T17:31:06Z</time>
      </trkpt>
      <trkpt lat="45.30927" lon="5.88628">
        <ele>963</ele>
        <time>2016-04-06T17:33:06Z</time>
      </trkpt>
      <trkpt lat="45.3096" lon="5.88681">
        <ele>964</ele>
        <time>2016-04-06T17:35:06Z</time>
      </trkpt>
      <trkpt lat="45.30994" lon="5.88699">
        <ele>969</ele>
        <time>2016-04-06T17:37:06Z</time>
      </trkpt>
      <trkpt lat="45.31068" lon="5.88732">
        <ele>966</ele>
        <time>2016-04-06T17:39:06Z</time>
      </trkpt>
      <trkpt lat="45.31099" lon="5.88742">
        <ele>964</ele>
        <time>2016-04-06T17:41:06Z</time>
      </trkpt>
      <trkpt lat="45.31169" lon="5.88746">
        <ele>960</ele>
        <time>2016-04-06T17:43:06Z</time>
      </trkpt>
      <trkpt lat="45.31243" lon="5.88747">
        <ele>957</ele>
        <time>2016-04-06T17:45:06Z</time>
      </trkpt>
      <trkpt lat="45.31267" lon="5.88746">
        <ele>955</ele>
        <time>2016-04-06T17:47:06Z</time>
      </trkpt>
      <trkpt lat="45.31302" lon="5.88752">
        <ele>953</ele>
        <time>2016-04-06T17:49:06Z</time>
      </trkpt>
      <trkpt lat="45.31331" lon="5.88756">
        <ele>951</ele>
        <time>2016-04-06T17:51:06Z</time>
      </trkpt>
      <trkpt lat="45.3142" lon="5.88784">
        <ele>948</ele>
        <time>2016-04-06T17:53:06Z</time>
      </trkpt>
      <trkpt lat="45.31459" lon="5.88796">
        <ele>947</ele>
        <time>2016-04-06T17:55:06Z</time>
      </trkpt>
      <trkpt lat="45.3155" lon="5.88827">
        <ele>944</ele>
        <time>2016-04-06T17:57:06Z</time>
      </trkpt>
      <trkpt lat="45.31578" lon="5.88826">
        <ele>945</ele>
        <time>2016-04-06T17:59:06Z</time>
      </trkpt>
      <trkpt lat="45.31608" lon="5.88815">
        <ele>947</ele>
        <time>2016-04-06T18:01:06Z</time>
      </trkpt>
      <trkpt lat="45.31608" lon="5.88783">
        <ele>951</ele>
        <time>2016-04-06T18:03:06Z</time>
      </trkpt>
      <trkpt lat="45.31631" lon="5.88684">
        <ele>964</ele>
        <time>2016-04-06T18:05:06Z</time>
      </trkpt>
      <trkpt lat="45.31643" lon="5.88656">
        <ele>968</ele>
        <time>2016-04-06T18:07:06Z</time>
      </trkpt>
      <trkpt lat="45.31665" lon="5.88634">
        <ele>971</ele>
        <time>2016-04-06T18:09:06Z</time>
      </trkpt>
      <trkpt lat="45.31692" lon="5.88613">
        <ele>976</ele>
        <time>2016-04-06T18:11:06Z</time>
      </trkpt>
      <trkpt lat="45.3171" lon="5.88605">
        <ele>979</ele>
        <time>2016-04-06T18:13:06Z</time>
      </trkpt>
      <trkpt lat="45.31732" lon="5.88596">
        <ele>982</ele>
        <time>2016-04-06T18:15:06Z</time>
      </trkpt>
      <trkpt lat="45.31742" lon="5.88577">
        <ele>985</ele>
        <time>2016-04-06T18:17:06Z</time>
      </trkpt>
      <trkpt lat="45.31758" lon="5.88545">
        <ele>991</ele>
        <time>2016-04-06T18:19:06Z</time>
      </trkpt>
      <trkpt lat="45.31771" lon="5.88522">
        <ele>996</ele>
        <time>2016-04-06T18:21:06Z</time>
      </trkpt>
      <trkpt lat="45.3182" lon="5.88466">
        <ele>1010</ele>
        <time>2016-04-06T18:23:06Z</time>
      </trkpt>
      <trkpt lat="45.31934" lon="5.88344">
        <ele>1046</ele>
        <time>2016-04-06T18:25:06Z</time>
      </trkpt>
      <trkpt lat="45.31944" lon="5.88322">
        <ele>1051</ele>
        <time>2016-04-06T18:27:06Z</time>
      </trkpt>
      <trkpt lat="45.31972" lon="5.88288">
        <ele>1060</ele>
        <time>2016-04-06T18:29:06Z</time>
      </trkpt>
      <trkpt lat="45.31992" lon="5.88295">
        <ele>1061</ele>
        <time>2016-04-06T18:31:06Z</time>
      </trkpt>
      <trkpt lat="45.32008" lon="5.88285">
        <ele>1065</ele>
        <time>2016-04-06T18:33:06Z</time>
      </trkpt>
      <trkpt lat="45.32025" lon="5.88257">
        <ele>1072</ele>
        <time>2016-04-06T18:35:06Z</time>
      </trkpt>
      <trkpt lat="45.32035" lon="5.8824">
        <ele>1077</ele>
        <time>2016-04-06T18:37:06Z</time>
      </trkpt>
      <trkpt lat="45.3205" lon="5.88229">
        <ele>1081</ele>
        <time>2016-04-06T18:39:06Z</time>
      </trkpt>
      <trkpt lat="45.32067" lon="5.88222">
        <ele>1085</ele>
        <time>2016-04-06T18:41:06Z</time>
      </trkpt>
      <trkpt lat="45.32088" lon="5.88222">
        <ele>1089</ele>
        <time>2016-04-06T18:43:06Z</time>
      </trkpt>
      <trkpt lat="45.32114" lon="5.88186">
        <ele>1102</ele>
        <time>2016-04-06T18:45:06Z</time>
      </trkpt>
      <trkpt lat="45.32151" lon="5.88142">
        <ele>1120</ele>
        <time>2016-04-06T18:47:06Z</time>
      </trkpt>
      <trkpt lat="45.32189" lon="5.88134">
        <ele>1133</ele>
        <time>2016-04-06T18:49:06Z</time>
      </trkpt>
      <trkpt lat="45.32233" lon="5.88143">
        <ele>1144</ele>
        <time>2016-04-06T18:51:06Z</time>
      </trkpt>
      <trkpt lat="45.32241" lon="5.88147">
        <ele>1146</ele>
        <time>2016-04-06T18:53:06Z</time>
      </trkpt>
      <trkpt lat="45.32253" lon="5.88155">
        <ele>1148</ele>
        <time>2016-04-06T18:55:06Z</time>
      </trkpt>
      <trkpt lat="45.32266" lon="5.88169">
        <ele>1152</ele>
        <time>2016-04-06T18:57:06Z</time>
      </trkpt>
      <trkpt lat="45.32281" lon="5.88194">
        <ele>1160</ele>
        <time>2016-04-06T18:59:06Z</time>
      </trkpt>
      <trkpt lat="45.32295" lon="5.88208">
        <ele>1167</ele>
        <time>2016-04-06T19:01:06Z</time>
      </trkpt>
      <trkpt lat="45.32296" lon="5.8823">
        <ele>1168</ele>
        <time>2016-04-06T19:03:06Z</time>
      </trkpt>
      <trkpt lat="45.32293" lon="5.88385">
        <ele>1181</ele>
        <time>2016-04-06T19:05:06Z</time>
      </trkpt>
      <trkpt lat="45.32301" lon="5.88437">
        <ele>1183</ele>
        <time>2016-04-06T19:07:06Z</time>
      </trkpt>
      <trkpt lat="45.32322" lon="5.88449">
        <ele>1192</ele>
        <time>2016-04-06T19:09:06Z</time>
      </trkpt>
      <trkpt lat="45.3234" lon="5.88452">
        <ele>1198</ele>
        <time>2016-04-06T19:11:06Z</time>
      </trkpt>
      <trkpt lat="45.32356" lon="5.8845">
        <ele>1203</ele>
        <time>2016-04-06T19:13:06Z</time>
      </trkpt>
      <trkpt lat="45.32367" lon="5.88448">
        <ele>1206</ele>
        <time>2016-04-06T19:15:06Z</time>
      </trkpt>
      <trkpt lat="45.32389" lon="5.88437">
        <ele>1214</ele>
        <time>2016-04-06T19:17:06Z</time>
      </trkpt>
      <trkpt lat="45.32419" lon="5.88436">
        <ele>1221</ele>
        <time>2016-04-06T19:19:06Z</time>
      </trkpt>
      <trkpt lat="45.3247" lon="5.88423">
        <ele>1231</ele>
        <time>2016-04-06T19:21:06Z</time>
      </trkpt>
      <trkpt lat="45.32478" lon="5.88407">
        <ele>1235</ele>
        <time>2016-04-06T19:23:06Z</time>
      </trkpt>
      <trkpt lat="45.3248" lon="5.88387">
        <ele>1240</ele>
        <time>2016-04-06T19:25:06Z</time>
      </trkpt>
      <trkpt lat="45.32477" lon="5.88353">
        <ele>1248</ele>
        <time>2016-04-06T19:27:06Z</time>
      </trkpt>
      <trkpt lat="45.32477" lon="5.88309">
        <ele>1255</ele>
        <time>2016-04-06T19:29:06Z</time>
      </trkpt>
      <trkpt lat="45.32483" lon="5.88254">
        <ele>1264</ele>
        <time>2016-04-06T19:31:06Z</time>
      </trkpt>
      <trkpt lat="45.32505" lon="5.88223">
        <ele>1270</ele>
        <time>2016-04-06T19:33:06Z</time>
      </trkpt>
      <trkpt lat="45.32515" lon="5.88199">
        <ele>1270</ele>
        <time>2016-04-06T19:35:06Z</time>
      </trkpt>
      <trkpt lat="45.32525" lon="5.88183">
        <ele>1270</ele>
        <time>2016-04-06T19:37:06Z</time>
      </trkpt>
      <trkpt lat="45.32547" lon="5.88148">
        <ele>1274</ele>
        <time>2016-04-06T19:39:06Z</time>
      </trkpt>
      <trkpt lat="45.32557" lon="5.88149">
        <ele>1276</ele>
        <time>2016-04-06T19:41:06Z</time>
      </trkpt>
      <trkpt lat="45.32556" lon="5.88116">
        <ele>1280</ele>
        <time>2016-04-06T19:43:06Z</time>
      </trkpt>
      <trkpt lat="45.32566" lon="5.88095">
        <ele>1287</ele>
        <time>2016-04-06T19:45:06Z</time>
      </trkpt>
      <trkpt lat="45.32579" lon="5.88085">
        <ele>1295</ele>
        <time>2016-04-06T19:47:06Z</time>
      </trkpt>
      <trkpt lat="45.32597" lon="5.88059">
        <ele>1306</ele>
        <time>2016-04-06T19:49:06Z</time>
      </trkpt>
      <trkpt lat="45.32614" lon="5.88011">
        <ele>1323</ele>
        <time>2016-04-06T19:51:06Z</time>
      </trkpt>
      <trkpt lat="45.32591" lon="5.87895">
        <ele>1346</ele>
        <time>2016-04-06T19:53:06Z</time>
      </trkpt>
      <trkpt lat="45.32617" lon="5.87818">
        <ele>1379</ele>
        <time>2016-04-06T19:55:06Z</time>
      </trkpt>
      <trkpt lat="45.32636" lon="5.87799">
        <ele>1396</ele>
        <time>2016-04-06T19:57:06Z</time>
      </trkpt>
      <trkpt lat="45.3267" lon="5.87845">
        <ele>1406</ele>
        <time>2016-04-06T19:59:06Z</time>
      </trkpt>
      <trkpt lat="45.32671" lon="5.87821">
        <ele>1413</ele>
        <time>2016-04-06T20:01:06Z</time>
      </trkpt>
      <trkpt lat="45.32713" lon="5.87827">
        <ele>1427</ele>
        <time>2016-04-06T20:03:06Z</time>
      </trkpt>
      <trkpt lat="45.32745" lon="5.87787">
        <ele>1455</ele>
        <time>2016-04-06T20:05:06Z</time>
      </trkpt>
      <trkpt lat="45.32738" lon="5.87736">
        <ele>1471</ele>
        <time>2016-04-06T20:07:06Z</time>
      </trkpt>
      <trkpt lat="45.32737" lon="5.87694">
        <ele>1484</ele>
        <time>2016-04-06T20:09:06Z</time>
      </trkpt>
      <trkpt lat="45.32745" lon="5.87653">
        <ele>1502</ele>
        <time>2016-04-06T20:11:06Z</time>
      </trkpt>
      <trkpt lat="45.32743" lon="5.87627">
        <ele>1508</ele>
        <time>2016-04-06T20:13:06Z</time>
      </trkpt>
      <trkpt lat="45.32737" lon="5.87595">
        <ele>1513</ele>
        <time>2016-04-06T20:15:06Z</time>
      </trkpt>
      <trkpt lat="45.32757" lon="5.87575">
        <ele>1531</ele>
        <time>2016-04-06T20:17:06Z</time>
      </trkpt>
      <trkpt lat="45.32754" lon="5.87562">
        <ele>1534</ele>
        <time>2016-04-06T20:19:06Z</time>
      </trkpt>
      <trkpt lat="45.32758" lon="5.87544">
        <ele>1541</ele>
        <time>2016-04-06T20:21:06Z</time>
      </trkpt>
      <trkpt lat="45.32768" lon="5.87552">
        <ele>1543</ele>
        <time>2016-04-06T20:23:06Z</time>
      </trkpt>
      <trkpt lat="45.32771" lon="5.8749">
        <ele>1566</ele>
        <time>2016-04-06T20:25:06Z</time>
      </trkpt>
      <trkpt lat="45.32763" lon="5.87464">
        <ele>1570</ele>
        <time>2016-04-06T20:27:06Z</time>
      </trkpt>
      <trkpt lat="45.3276" lon="5.87433">
        <ele>1578</ele>
        <time>2016-04-06T20:29:06Z</time>
      </trkpt>
      <trkpt lat="45.3275" lon="5.87422">
        <ele>1575</ele>
        <time>2016-04-06T20:31:06Z</time>
      </trkpt>
      <trkpt lat="45.3275" lon="5.87414">
        <ele>1578</ele>
        <time>2016-04-06T20:33:06Z</time>
      </trkpt>
      <trkpt lat="45.32755" lon="5.87413">
        <ele>1581</ele>
        <time>2016-04-06T20:35:06Z</time>
      </trkpt>
      <trkpt lat="45.32762" lon="5.87391">
        <ele>1594</ele>
        <time>2016-04-06T20:37:06Z</time>
      </trkpt>
      <trkpt lat="45.32767" lon="5.87391">
        <ele>1597</ele>
        <time>2016-04-06T20:39:06Z</time>
      </trkpt>
      <trkpt lat="45.32766" lon="5.87375">
        <ele>1603</ele>
        <time>2016-04-06T20:41:06Z</time>
      </trkpt>
      <trkpt lat="45.32772" lon="5.87377">
        <ele>1605</ele>
        <time>2016-04-06T20:43:06Z</time>
      </trkpt>
      <trkpt lat="45.32777" lon="5.87372">
        <ele>1610</ele>
        <time>2016-04-06T20:45:06Z</time>
      </trkpt>
      <trkpt lat="45.32781" lon="5.87378">
        <ele>1610</ele>
        <time>2016-04-06T20:47:06Z</time>
      </trkpt>
      <trkpt lat="45.32782" lon="5.87366">
        <ele>1616</ele>
        <time>2016-04-06T20:49:06Z</time>
      </trkpt>
      <trkpt lat="45.32789" lon="5.87368">
        <ele>1619</ele>
        <time>2016-04-06T20:51:06Z</time>
      </trkpt>
      <trkpt lat="45.32787" lon="5.87354">
        <ele>1624</ele>
        <time>2016-04-06T20:53:06Z</time>
      </trkpt>
      <trkpt lat="45.32792" lon="5.87346">
        <ele>1630</ele>
        <time>2016-04-06T20:55:06Z</time>
      </trkpt>
      <trkpt lat="45.32795" lon="5.87339">
        <ele>1635</ele>
        <time>2016-04-06T20:57:06Z</time>
      </trkpt>
      <trkpt lat="45.328" lon="5.87338">
        <ele>1638</ele>
        <time>2016-04-06T20:59:06Z</time>
      </trkpt>
      <trkpt lat="45.32782" lon="5.87267">
        <ele>1664</ele>
        <time>2016-04-06T21:01:06Z</time>
      </trkpt>
      <trkpt lat="45.32792" lon="5.87266">
        <ele>1670</ele>
        <time>2016-04-06T21:03:06Z</time>
      </trkpt>
      <trkpt lat="45.3283" lon="5.87301">
        <ele>1676</ele>
        <time>2016-04-06T21:05:06Z</time>
      </trkpt>
      <trkpt lat="45.32834" lon="5.87314">
        <ele>1671</ele>
        <time>2016-04-06T21:07:06Z</time>
      </trkpt>
      <trkpt lat="45.32848" lon="5.87323">
        <ele>1676</ele>
        <time>2016-04-06T21:09:06Z</time>
      </trkpt>
      <trkpt lat="45.32856" lon="5.87333">
        <ele>1676</ele>
        <time>2016-04-06T21:11:06Z</time>
      </trkpt>
      <trkpt lat="45.32864" lon="5.87336">
        <ele>1679</ele>
        <time>2016-04-06T21:13:06Z</time>
      </trkpt>
      <trkpt lat="45.32864" lon="5.87328">
        <ele>1683</ele>
        <time>2016-04-06T21:15:06Z</time>
      </trkpt>
      <trkpt lat="45.32868" lon="5.8733">
        <ele>1685</ele>
        <time>2016-04-06T21:17:06Z</time>
      </trkpt>
      <trkpt lat="45.32891" lon="5.87351">
        <ele>1689</ele>
        <time>2016-04-06T21:19:06Z</time>
      </trkpt>
      <trkpt lat="45.32897" lon="5.8735">
        <ele>1693</ele>
        <time>2016-04-06T21:21:06Z</time>
      </trkpt>
      <trkpt lat="45.32897" lon="5.87345">
        <ele>1696</ele>
        <time>2016-04-06T21:23:06Z</time>
      </trkpt>
      <trkpt lat="45.32901" lon="5.87337">
        <ele>1702</ele>
        <time>2016-04-06T21:25:06Z</time>
      </trkpt>
      <trkpt lat="45.32903" lon="5.87325">
        <ele>1710</ele>
        <time>2016-04-06T21:27:06Z</time>
      </trkpt>
      <trkpt lat="45.329" lon="5.87318">
        <ele>1713</ele>
        <time>2016-04-06T21:29:06Z</time>
      </trkpt>
      <trkpt lat="45.32913" lon="5.87329">
        <ele>1714</ele>
        <time>2016-04-06T21:31:06Z</time>
      </trkpt>
      <trkpt lat="45.32928" lon="5.87332">
        <ele>1728</ele>
        <time>2016-04-06T21:33:06Z</time>
      </trkpt>
      <trkpt lat="45.3293" lon="5.87324">
        <ele>1735</ele>
        <time>2016-04-06T21:35:06Z</time>
      </trkpt>
      <trkpt lat="45.3294" lon="5.87309">
        <ele>1755</ele>
        <time>2016-04-06T21:37:06Z</time>
      </trkpt>
      <trkpt lat="45.32947" lon="5.8729">
        <ele>1773</ele>
        <time>2016-04-06T21:39:06Z</time>
      </trkpt>
      <trkpt lat="45.3293" lon="5.87291">
        <ele>1754</ele>
        <time>2016-04-06T21:41:06Z</time>
      </trkpt>
      <trkpt lat="45.32928" lon="5.8728">
        <ele>1759</ele>
        <time>2016-04-06T21:43:06Z</time>
      </trkpt>
      <trkpt lat="45.32934" lon="5.87243">
        <ele>1786</ele>
        <time>2016-04-06T21:45:06Z</time>
      </trkpt>
      <trkpt lat="45.32939" lon="5.87226">
        <ele>1799</ele>
        <time>2016-04-06T21:47:06Z</time>
      </trkpt>
      <trkpt lat="45.32924" lon="5.87223">
        <ele>1791</ele>
        <time>2016-04-06T21:49:06Z</time>
      </trkpt>
      <trkpt lat="45.32908" lon="5.87211">
        <ele>1789</ele>
        <time>2016-04-06T21:51:06Z</time>
      </trkpt>
      <trkpt lat="45.32897" lon="5.87206">
        <ele>1786</ele>
        <time>2016-04-06T21:53:06Z</time>
      </trkpt>
      <trkpt lat="45.32897" lon="5.87201">
        <ele>1790</ele>
        <time>2016-04-06T21:55:06Z</time>
      </trkpt>
      <trkpt lat="45.32906" lon="5.87192">
        <ele>1803</ele>
        <time>2016-04-06T21:57:06Z</time>
      </trkpt>
      <trkpt lat="45.32912" lon="5.87192">
        <ele>1806</ele>
        <time>2016-04-06T21:59:06Z</time>
      </trkpt>
      <trkpt lat="45.32913" lon="5.87188">
        <ele>1810</ele>
        <time>2016-04-06T22:01:06Z</time>
      </trkpt>
      <trkpt lat="45.32918" lon="5.87187">
        <ele>1813</ele>
        <time>2016-04-06T22:03:06Z</time>
      </trkpt>
      <trkpt lat="45.32922" lon="5.87178">
        <ele>1821</ele>
        <time>2016-04-06T22:05:06Z</time>
      </trkpt>
      <trkpt lat="45.32927" lon="5.87182">
        <ele>1820</ele>
        <time>2016-04-06T22:07:06Z</time>
      </trkpt>
      <trkpt lat="45.3294" lon="5.87174">
        <ele>1828</ele>
        <time>2016-04-06T22:09:06Z</time>
      </trkpt>
      <trkpt lat="45.32947" lon="5.87187">
        <ele>1823</ele>
        <time>2016-04-06T22:11:06Z</time>
      </trkpt>
      <trkpt lat="45.32954" lon="5.8719">
        <ele>1825</ele>
        <time>2016-04-06T22:13:06Z</time>
      </trkpt>
      <trkpt lat="45.32962" lon="5.87195">
        <ele>1826</ele>
        <time>2016-04-06T22:15:06Z</time>
      </trkpt>
      <trkpt lat="45.32969" lon="5.87188">
        <ele>1831</ele>
        <time>2016-04-06T22:17:06Z</time>
      </trkpt>
      <trkpt lat="45.32978" lon="5.87209">
        <ele>1830</ele>
        <time>2016-04-06T22:19:06Z</time>
      </trkpt>
      <trkpt lat="45.32988" lon="5.8723">
        <ele>1833</ele>
        <time>2016-04-06T22:21:06Z</time>
      </trkpt>
      <trkpt lat="45.32996" lon="5.87225">
        <ele>1839</ele>
        <time>2016-04-06T22:23:06Z</time>
      </trkpt>
      <trkpt lat="45.33022" lon="5.87252">
        <ele>1837</ele>
        <time>2016-04-06T22:25:06Z</time>
      </trkpt>
      <trkpt lat="45.33034" lon="5.8725">
        <ele>1835</ele>
        <time>2016-04-06T22:27:06Z</time>
      </trkpt>
      <trkpt lat="45.33042" lon="5.87246">
        <ele>1832</ele>
        <time>2016-04-06T22:29:06Z</time>
      </trkpt>
      <trkpt lat="45.33053" lon="5.87235">
        <ele>1828</ele>
        <time>2016-04-06T22:31:06Z</time>
      </trkpt>
      <trkpt lat="45.33064" lon="5.87233">
        <ele>1824</ele>
        <time>2016-04-06T22:33:06Z</time>
      </trkpt>
      <trkpt lat="45.33075" lon="5.87237">
        <ele>1822</ele>
        <time>2016-04-06T22:35:06Z</time>
      </trkpt>
      <trkpt lat="45.33083" lon="5.87232">
        <ele>1818</ele>
        <time>2016-04-06T22:37:06Z</time>
      </trkpt>
      <trkpt lat="45.33087" lon="5.87224">
        <ele>1815</ele>
        <time>2016-04-06T22:39:06Z</time>
      </trkpt>
      <trkpt lat="45.33095" lon="5.87202">
        <ele>1806</ele>
        <time>2016-04-06T22:41:06Z</time>
      </trkpt>
      <trkpt lat="45.33104" lon="5.87201">
        <ele>1804</ele>
        <time>2016-04-06T22:43:06Z</time>
      </trkpt>
      <trkpt lat="45.33116" lon="5.87194">
        <ele>1798</ele>
        <time>2016-04-06T22:45:06Z</time>
      </trkpt>
      <trkpt lat="45.33113" lon="5.87181">
        <ele>1794</ele>
        <time>2016-04-06T22:47:06Z</time>
      </trkpt>
      <trkpt lat="45.33117" lon="5.87179">
        <ele>1792</ele>
        <time>2016-04-06T22:49:06Z</time>
      </trkpt>
      <trkpt lat="45.3313" lon="5.87179">
        <ele>1788</ele>
        <time>2016-04-06T22:51:06Z</time>
      </trkpt>
      <trkpt lat="45.33134" lon="5.87174">
        <ele>1785</ele>
        <time>2016-04-06T22:53:06Z</time>
      </trkpt>
      <trkpt lat="45.3313" lon="5.87169">
        <ele>1784</ele>
        <time>2016-04-06T22:55:06Z</time>
      </trkpt>
      <trkpt lat="45.33119" lon="5.87165">
        <ele>1786</ele>
        <time>2016-04-06T22:57:06Z</time>
      </trkpt>
      <trkpt lat="45.33112" lon="5.87157">
        <ele>1786</ele>
        <time>2016-04-06T22:59:06Z</time>
      </trkpt>
      <trkpt lat="45.33108" lon="5.87144">
        <ele>1783</ele>
        <time>2016-04-06T23:01:06Z</time>
      </trkpt>
      <trkpt lat="45.33101" lon="5.87132">
        <ele>1782</ele>
        <time>2016-04-06T23:03:06Z</time>
      </trkpt>
      <trkpt lat="45.33107" lon="5.87071">
        <ele>1761</ele>
        <time>2016-04-06T23:05:06Z</time>
      </trkpt>
      <trkpt lat="45.33116" lon="5.87065">
        <ele>1757</ele>
        <time>2016-04-06T23:07:06Z</time>
      </trkpt>
      <trkpt lat="45.3312" lon="5.87041">
        <ele>1750</ele>
        <time>2016-04-06T23:09:06Z</time>
      </trkpt>
      <trkpt lat="45.33127" lon="5.87032">
        <ele>1746</ele>
        <time>2016-04-06T23:11:06Z</time>
      </trkpt>
      <trkpt lat="45.33134" lon="5.87031">
        <ele>1743</ele>
        <time>2016-04-06T23:13:06Z</time>
      </trkpt>
      <trkpt lat="45.33156" lon="5.87028">
        <ele>1735</ele>
        <time>2016-04-06T23:15:06Z</time>
      </trkpt>
      <trkpt lat="45.33169" lon="5.87029">
        <ele>1731</ele>
        <time>2016-04-06T23:17:06Z</time>
      </trkpt>
      <trkpt lat="45.33179" lon="5.87022">
        <ele>1728</ele>
        <time>2016-04-06T23:19:06Z</time>
      </trkpt>
      <trkpt lat="45.33185" lon="5.87024">
        <ele>1728</ele>
        <time>2016-04-06T23:21:06Z</time>
      </trkpt>
      <trkpt lat="45.33207" lon="5.87033">
        <ele>1726</ele>
        <time>2016-04-06T23:23:06Z</time>
      </trkpt>
      <trkpt lat="45.33227" lon="5.87012">
        <ele>1719</ele>
        <time>2016-04-06T23:25:06Z</time>
      </trkpt>
      <trkpt lat="45.33217" lon="5.86987">
        <ele>1717</ele>
        <time>2016-04-06T23:27:06Z</time>
      </trkpt>
      <trkpt lat="45.3318" lon="5.86918">
        <ele>1716</ele>
        <time>2016-04-06T23:29:06Z</time>
      </trkpt>
      <trkpt lat="45.33141" lon="5.86848">
        <ele>1716</ele>
        <time>2016-04-06T23:31:06Z</time>
      </trkpt>
      <trkpt lat="45.3309" lon="5.86761">
        <ele>1711</ele>
        <time>2016-04-06T23:33:06Z</time>
      </trkpt>
      <trkpt lat="45.33073" lon="5.86733">
        <ele>1710</ele>
        <time>2016-04-06T23:35:06Z</time>
      </trkpt>
      <trkpt lat="45.33063" lon="5.86723">
        <ele>1711</ele>
        <time>2016-04-06T23:37:06Z</time>
      </trkpt>
      <trkpt lat="45.33046" lon="5.86694">
        <ele>1711</ele>
        <time>2016-04-06T23:39:06Z</time>
      </trkpt>
      <trkpt lat="45.32999" lon="5.86663">
        <ele>1716</ele>
        <time>2016-04-06T23:41:06Z</time>
      </trkpt>
      <trkpt lat="45.32997" lon="5.8664">
        <ele>1717</ele>
        <time>2016-04-06T23:43:06Z</time>
      </trkpt>
      <trkpt lat="45.33001" lon="5.86621">
        <ele>1715</ele>
        <time>2016-04-06T23:45:06Z</time>
      </trkpt>
      <trkpt lat="45.32992" lon="5.86611">
        <ele>1718</ele>
        <time>2016-04-06T23:47:06Z</time>
      </trkpt>
      <trkpt lat="45.32993" lon="5.86602">
        <ele>1717</ele>
        <time>2016-04-06T23:49:06Z</time>
      </trkpt>
      <trkpt lat="45.32983" lon="5.86596">
        <ele>1720</ele>
        <time>2016-04-06T23:51:06Z</time>
      </trkpt>
      <trkpt lat="45.32982" lon="5.8656">
        <ele>1715</ele>
        <time>2016-04-06T23:53:06Z</time>
      </trkpt>
      <trkpt lat="45.32975" lon="5.86551">
        <ele>1715</ele>
        <time>2016-04-06T23:55:06Z</time>
      </trkpt>
      <trkpt lat="45.32962" lon="5.86546">
        <ele>1715</ele>
        <time>2016-04-06T23:57:06Z</time>
      </trkpt>
      <trkpt lat="45.3292" lon="5.86547">
        <ele>1721</ele>
        <time>2016-04-06T23:59:06Z</time>
      </trkpt>
      <trkpt lat="45.32907" lon="5.86538">
        <ele>1719</ele>
        <time>2016-04-07T00:01:06Z</time>
      </trkpt>
      <trkpt lat="45.32866" lon="5.86548">
        <ele>1728</ele>
        <time>2016-04-07T00:03:06Z</time>
      </trkpt>
      <trkpt lat="45.32757" lon="5.86518">
        <ele>1732</ele>
        <time>2016-04-07T00:05:06Z</time>
      </trkpt>
      <trkpt lat="45.32714" lon="5.86494">
        <ele>1731</ele>
        <time>2016-04-07T00:07:06Z</time>
      </trkpt>
      <trkpt lat="45.32683" lon="5.86485">
        <ele>1735</ele>
        <time>2016-04-07T00:09:06Z</time>
      </trkpt>
      <trkpt lat="45.32648" lon="5.86462">
        <ele>1732</ele>
        <time>2016-04-07T00:11:06Z</time>
      </trkpt>
      <trkpt lat="45.32603" lon="5.86434">
        <ele>1724</ele>
        <time>2016-04-07T00:13:06Z</time>
      </trkpt>
      <trkpt lat="45.32556" lon="5.86429">
        <ele>1725</ele>
        <time>2016-04-07T00:15:06Z</time>
      </trkpt>
      <trkpt lat="45.32544" lon="5.86421">
        <ele>1720</ele>
        <time>2016-04-07T00:17:06Z</time>
      </trkpt>
      <trkpt lat="45.32533" lon="5.86434">
        <ele>1729</ele>
        <time>2016-04-07T00:19:06Z</time>
      </trkpt>
      <trkpt lat="45.32478" lon="5.86443">
        <ele>1734</ele>
        <time>2016-04-07T00:21:06Z</time>
      </trkpt>
      <trkpt lat="45.32462" lon="5.86441">
        <ele>1730</ele>
        <time>2016-04-07T00:23:06Z</time>
      </trkpt>
      <trkpt lat="45.32391" lon="5.86463">
        <ele>1736</ele>
        <time>2016-04-07T00:25:06Z</time>
      </trkpt>
      <trkpt lat="45.3237" lon="5.86452">
        <ele>1732</ele>
        <time>2016-04-07T00:27:06Z</time>
      </trkpt>
      <trkpt lat="45.32319" lon="5.86446">
        <ele>1737</ele>
        <time>2016-04-07T00:29:06Z</time>
      </trkpt>
      <trkpt lat="45.32299" lon="5.86435">
        <ele>1741</ele>
        <time>2016-04-07T00:31:06Z</time>
      </trkpt>
      <trkpt lat="45.32281" lon="5.86422">
        <ele>1745</ele>
        <time>2016-04-07T00:33:06Z</time>
      </trkpt>
      <trkpt lat="45.32256" lon="5.86389">
        <ele>1750</ele>
        <time>2016-04-07T00:35:06Z</time>
      </trkpt>
      <trkpt lat="45.32246" lon="5.86356">
        <ele>1751</ele>
        <time>2016-04-07T00:37:06Z</time>
      </trkpt>
      <trkpt lat="45.32241" lon="5.86293">
        <ele>1745</ele>
        <time>2016-04-07T00:39:06Z</time>
      </trkpt>
      <trkpt lat="45.32242" lon="5.86253">
        <ele>1740</ele>
        <time>2016-04-07T00:41:06Z</time>
      </trkpt>
      <trkpt lat="45.32224" lon="5.86215">
        <ele>1742</ele>
        <time>2016-04-07T00:43:06Z</time>
      </trkpt>
      <trkpt lat="45.32219" lon="5.86167">
        <ele>1737</ele>
        <time>2016-04-07T00:45:06Z</time>
      </trkpt>
      <trkpt lat="45.3222" lon="5.86091">
        <ele>1731</ele>
        <time>2016-04-07T00:47:06Z</time>
      </trkpt>
      <trkpt lat="45.32204" lon="5.86021">
        <ele>1731</ele>
        <time>2016-04-07T00:49:06Z</time>
      </trkpt>
      <trkpt lat="45.32194" lon="5.85973">
        <ele>1729</ele>
        <time>2016-04-07T00:51:06Z</time>
      </trkpt>
      <trkpt lat="45.32181" lon="5.85945">
        <ele>1729</ele>
        <time>2016-04-07T00:53:06Z</time>
      </trkpt>
      <trkpt lat="45.32168" lon="5.85928">
        <ele>1730</ele>
        <time>2016-04-07T00:55:06Z</time>
      </trkpt>
      <trkpt lat="45.32155" lon="5.8589">
        <ele>1728</ele>
        <time>2016-04-07T00:57:06Z</time>
      </trkpt>
      <trkpt lat="45.32104" lon="5.85851">
        <ele>1737</ele>
        <time>2016-04-07T00:59:06Z</time>
      </trkpt>
      <trkpt lat="45.32092" lon="5.85794">
        <ele>1738</ele>
        <time>2016-04-07T01:01:06Z</time>
      </trkpt>
      <trkpt lat="45.32079" lon="5.85781">
        <ele>1741</ele>
        <time>2016-04-07T01:03:06Z</time>
      </trkpt>
      <trkpt lat="45.32074" lon="5.85756">
        <ele>1742</ele>
        <time>2016-04-07T01:05:06Z</time>
      </trkpt>
      <trkpt lat="45.32048" lon="5.85745">
        <ele>1747</ele>
        <time>2016-04-07T01:07:06Z</time>
      </trkpt>
      <trkpt lat="45.32031" lon="5.85706">
        <ele>1754</ele>
        <time>2016-04-07T01:09:06Z</time>
      </trkpt>
      <trkpt lat="45.32042" lon="5.85681">
        <ele>1755</ele>
        <time>2016-04-07T01:11:06Z</time>
      </trkpt>
      <trkpt lat="45.32035" lon="5.85642">
        <ele>1762</ele>
        <time>2016-04-07T01:13:06Z</time>
      </trkpt>
      <trkpt lat="45.32023" lon="5.85616">
        <ele>1767</ele>
        <time>2016-04-07T01:15:06Z</time>
      </trkpt>
      <trkpt lat="45.3201" lon="5.85603">
        <ele>1770</ele>
        <time>2016-04-07T01:17:06Z</time>
      </trkpt>
      <trkpt lat="45.32004" lon="5.85576">
        <ele>1774</ele>
        <time>2016-04-07T01:19:06Z</time>
      </trkpt>
      <trkpt lat="45.31974" lon="5.85552">
        <ele>1778</ele>
        <time>2016-04-07T01:21:06Z</time>
      </trkpt>
      <trkpt lat="45.31946" lon="5.85525">
        <ele>1782</ele>
        <time>2016-04-07T01:23:06Z</time>
      </trkpt>
      <trkpt lat="45.31926" lon="5.85505">
        <ele>1783</ele>
        <time>2016-04-07T01:25:06Z</time>
      </trkpt>
      <trkpt lat="45.31897" lon="5.85471">
        <ele>1787</ele>
        <time>2016-04-07T01:27:06Z</time>
      </trkpt>
      <trkpt lat="45.31865" lon="5.85486">
        <ele>1792</ele>
        <time>2016-04-07T01:29:06Z</time>
      </trkpt>
      <trkpt lat="45.31846" lon="5.85502">
        <ele>1795</ele>
        <time>2016-04-07T01:31:06Z</time>
      </trkpt>
      <trkpt lat="45.31832" lon="5.85505">
        <ele>1797</ele>
        <time>2016-04-07T01:33:06Z</time>
      </trkpt>
      <trkpt lat="45.31814" lon="5.85503">
        <ele>1801</ele>
        <time>2016-04-07T01:35:06Z</time>
      </trkpt>
      <trkpt lat="45.31787" lon="5.85517">
        <ele>1807</ele>
        <time>2016-04-07T01:37:06Z</time>
      </trkpt>
      <trkpt lat="45.31747" lon="5.85535">
        <ele>1815</ele>
        <time>2016-04-07T01:39:06Z</time>
      </trkpt>
      <trkpt lat="45.31728" lon="5.85545">
        <ele>1820</ele>
        <time>2016-04-07T01:41:06Z</time>
      </trkpt>
      <trkpt lat="45.31707" lon="5.85549">
        <ele>1825</ele>
        <time>2016-04-07T01:43:06Z</time>
      </trkpt>
      <trkpt lat="45.31685" lon="5.85551">
        <ele>1830</ele>
        <time>2016-04-07T01:45:06Z</time>
      </trkpt>
      <trkpt lat="45.31654" lon="5.85561">
        <ele>1838</ele>
        <time>2016-04-07T01:47:06Z</time>
      </trkpt>
      <trkpt lat="45.31627" lon="5.8555">
        <ele>1845</ele>
        <time>2016-04-07T01:49:06Z</time>
      </trkpt>
      <trkpt lat="45.31611" lon="5.85548">
        <ele>1849</ele>
        <time>2016-04-07T01:51:06Z</time>
      </trkpt>
      <trkpt lat="45.31596" lon="5.85549">
        <ele>1853</ele>
        <time>2016-04-07T01:53:06Z</time>
      </trkpt>
      <trkpt lat="45.31587" lon="5.85554">
        <ele>1855</ele>
        <time>2016-04-07T01:55:06Z</time>
      </trkpt>
      <trkpt lat="45.31573" lon="5.85549">
        <ele>1859</ele>
        <time>2016-04-07T01:57:06Z</time>
      </trkpt>
      <trkpt lat="45.31557" lon="5.85553">
        <ele>1864</ele>
        <time>2016-04-07T01:59:06Z</time>
      </trkpt>
      <trkpt lat="45.31547" lon="5.85544">
        <ele>1866</ele>
        <time>2016-04-07T02:01:06Z</time>
      </trkpt>
      <trkpt lat="45.31536" lon="5.85537">
        <ele>1869</ele>
        <time>2016-04-07T02:03:06Z</time>
      </trkpt>
      <trkpt lat="45.31521" lon="5.85538">
        <ele>1873</ele>
        <time>2016-04-07T02:05:06Z</time>
      </trkpt>
      <trkpt lat="45.31509" lon="5.85527">
        <ele>1875</ele>
        <time>2016-04-07T02:07:06Z</time>
      </trkpt>
      <trkpt lat="45.31504" lon="5.85513">
        <ele>1876</ele>
        <time>2016-04-07T02:09:06Z</time>
      </trkpt>
      <trkpt lat="45.31498" lon="5.85511">
        <ele>1877</ele>
        <time>2016-04-07T02:11:06Z</time>
      </trkpt>
      <trkpt lat="45.31452" lon="5.85535">
        <ele>1893</ele>
        <time>2016-04-07T02:13:06Z</time>
      </trkpt>
      <trkpt lat="45.31438" lon="5.85538">
        <ele>1897</ele>
        <time>2016-04-07T02:15:06Z</time>
      </trkpt>
      <trkpt lat="45.3142" lon="5.85534">
        <ele>1902</ele>
        <time>2016-04-07T02:17:06Z</time>
      </trkpt>
      <trkpt lat="45.31398" lon="5.85534">
        <ele>1909</ele>
        <time>2016-04-07T02:19:06Z</time>
      </trkpt>
      <trkpt lat="45.31381" lon="5.85547">
        <ele>1916</ele>
        <time>2016-04-07T02:21:06Z</time>
      </trkpt>
      <trkpt lat="45.31362" lon="5.85555">
        <ele>1922</ele>
        <time>2016-04-07T02:23:06Z</time>
      </trkpt>
      <trkpt lat="45.3134" lon="5.85559">
        <ele>1929</ele>
        <time>2016-04-07T02:25:06Z</time>
      </trkpt>
      <trkpt lat="45.31327" lon="5.85556">
        <ele>1933</ele>
        <time>2016-04-07T02:27:06Z</time>
      </trkpt>
      <trkpt lat="45.31318" lon="5.8555">
        <ele>1935</ele>
        <time>2016-04-07T02:29:06Z</time>
      </trkpt>
      <trkpt lat="45.31291" lon="5.85559">
        <ele>1942</ele>
        <time>2016-04-07T02:31:06Z</time>
      </trkpt>
      <trkpt lat="45.3128" lon="5.85574">
        <ele>1946</ele>
        <time>2016-04-07T02:33:06Z</time>
      </trkpt>
      <trkpt lat="45.31274" lon="5.85586">
        <ele>1949</ele>
        <time>2016-04-07T02:35:06Z</time>
      </trkpt>
      <trkpt lat="45.31255" lon="5.85593">
        <ele>1954</ele>
        <time>2016-04-07T02:37:06Z</time>
      </trkpt>
      <trkpt lat="45.31243" lon="5.85592">
        <ele>1957</ele>
        <time>2016-04-07T02:39:06Z</time>
      </trkpt>
      <trkpt lat="45.31239" lon="5.85586">
        <ele>1957</ele>
        <time>2016-04-07T02:41:06Z</time>
      </trkpt>
      <trkpt lat="45.31228" lon="5.85588">
        <ele>1960</ele>
        <time>2016-04-07T02:43:06Z</time>
      </trkpt>
      <trkpt lat="45.31223" lon="5.85586">
        <ele>1961</ele>
        <time>2016-04-07T02:45:06Z</time>
      </trkpt>
      <trkpt lat="45.31209" lon="5.85594">
        <ele>1964</ele>
        <time>2016-04-07T02:47:06Z</time>
      </trkpt>
      <trkpt lat="45.31195" lon="5.85594">
        <ele>1967</ele>
        <time>2016-04-07T02:49:06Z</time>
      </trkpt>
      <trkpt lat="45.31178" lon="5.8559">
        <ele>1971</ele>
        <time>2016-04-07T02:51:06Z</time>
      </trkpt>
      <trkpt lat="45.31161" lon="5.85584">
        <ele>1974</ele>
        <time>2016-04-07T02:53:06Z</time>
      </trkpt>
      <trkpt lat="45.31155" lon="5.85583">
        <ele>1976</ele>
        <time>2016-04-07T02:55:06Z</time>
      </trkpt>
      <trkpt lat="45.31147" lon="5.85584">
        <ele>1978</ele>
        <time>2016-04-07T02:57:06Z</time>
      </trkpt>
      <trkpt lat="45.31139" lon="5.85582">
        <ele>1979</ele>
        <time>2016-04-07T02:59:06Z</time>
      </trkpt>
      <trkpt lat="45.31131" lon="5.85587">
        <ele>1981</ele>
        <time>2016-04-07T03:01:06Z</time>
      </trkpt>
      <trkpt lat="45.31114" lon="5.85577">
        <ele>1985</ele>
        <time>2016-04-07T03:03:06Z</time>
      </trkpt>
      <trkpt lat="45.311" lon="5.85572">
        <ele>1989</ele>
        <time>2016-04-07T03:05:06Z</time>
      </trkpt>
      <trkpt lat="45.31088" lon="5.85568">
        <ele>1992</ele>
        <time>2016-04-07T03:07:06Z</time>
      </trkpt>
      <trkpt lat="45.3108" lon="5.8556">
        <ele>1994</ele>
        <time>2016-04-07T03:09:06Z</time>
      </trkpt>
      <trkpt lat="45.31066" lon="5.85553">
        <ele>1998</ele>
        <time>2016-04-07T03:11:06Z</time>
      </trkpt>
      <trkpt lat="45.31055" lon="5.85545">
        <ele>2001</ele>
        <time>2016-04-07T03:13:06Z</time>
      </trkpt>
      <trkpt lat="45.31033" lon="5.85551">
        <ele>2007</ele>
        <time>2016-04-07T03:15:06Z</time>
      </trkpt>
      <trkpt lat="45.31015" lon="5.85559">
        <ele>2011</ele>
        <time>2016-04-07T03:17:06Z</time>
      </trkpt>
      <trkpt lat="45.31" lon="5.85553">
        <ele>2015</ele>
        <time>2016-04-07T03:19:06Z</time>
      </trkpt>
      <trkpt lat="45.30988" lon="5.8555">
        <ele>2019</ele>
        <time>2016-04-07T03:21:06Z</time>
      </trkpt>
      <trkpt lat="45.30966" lon="5.85545">
        <ele>2025</ele>
        <time>2016-04-07T03:23:06Z</time>
      </trkpt>
      <trkpt lat="45.30944" lon="5.8555">
        <ele>2031</ele>
        <time>2016-04-07T03:25:06Z</time>
      </trkpt>
      <trkpt lat="45.30923" lon="5.85557">
        <ele>2038</ele>
        <time>2016-04-07T03:27:06Z</time>
      </trkpt>
      <trkpt lat="45.30902" lon="5.85554">
        <ele>2034</ele>
        <time>2016-04-07T03:29:06Z</time>
      </trkpt>
      <trkpt lat="45.30897" lon="5.85548">
        <ele>2033</ele>
        <time>2016-04-07T03:31:06Z</time>
      </trkpt>
      <trkpt lat="45.30885" lon="5.85546">
        <ele>2029</ele>
        <time>2016-04-07T03:33:06Z</time>
      </trkpt>
      <trkpt lat="45.30878" lon="5.85542">
        <ele>2028</ele>
        <time>2016-04-07T03:35:06Z</time>
      </trkpt>
      <trkpt lat="45.30861" lon="5.85543">
        <ele>2023</ele>
        <time>2016-04-07T03:37:06Z</time>
      </trkpt>
      <trkpt lat="45.30848" lon="5.8554">
        <ele>2021</ele>
        <time>2016-04-07T03:39:06Z</time>
      </trkpt>
      <trkpt lat="45.30835" lon="5.85534">
        <ele>2021</ele>
        <time>2016-04-07T03:41:06Z</time>
      </trkpt>
      <trkpt lat="45.3083" lon="5.85527">
        <ele>2016</ele>
        <time>2016-04-07T03:43:06Z</time>
      </trkpt>
      <trkpt lat="45.30829" lon="5.85512">
        <ele>2024</ele>
        <time>2016-04-07T03:45:06Z</time>
      </trkpt>
      <trkpt lat="45.3083" lon="5.855">
        <ele>2035</ele>
        <time>2016-04-07T03:47:06Z</time>
      </trkpt>
      <trkpt lat="45.30848" lon="5.85475">
        <ele>2033</ele>
        <time>2016-04-07T03:49:06Z</time>
      </trkpt>
      <trkpt lat="45.30843" lon="5.85466">
        <ele>2030</ele>
        <time>2016-04-07T03:51:06Z</time>
      </trkpt>
      <trkpt lat="45.30861" lon="5.85455">
        <ele>2026</ele>
        <time>2016-04-07T03:53:06Z</time>
      </trkpt>
      <trkpt lat="45.30852" lon="5.85453">
        <ele>2025</ele>
        <time>2016-04-07T03:55:06Z</time>
      </trkpt>
      <trkpt lat="45.30871" lon="5.85441">
        <ele>2022</ele>
        <time>2016-04-07T03:57:06Z</time>
      </trkpt>
      <trkpt lat="45.30889" lon="5.85422">
        <ele>2017</ele>
        <time>2016-04-07T03:59:06Z</time>
      </trkpt>
      <trkpt lat="45.30897" lon="5.854">
        <ele>2008</ele>
        <time>2016-04-07T04:01:06Z</time>
      </trkpt>
      <trkpt lat="45.30899" lon="5.85388">
        <ele>2003</ele>
        <time>2016-04-07T04:03:06Z</time>
      </trkpt>
      <trkpt lat="45.30895" lon="5.85375">
        <ele>1995</ele>
        <time>2016-04-07T04:05:06Z</time>
      </trkpt>
      <trkpt lat="45.3089" lon="5.85366">
        <ele>1989</ele>
        <time>2016-04-07T04:07:06Z</time>
      </trkpt>
      <trkpt lat="45.3089" lon="5.85354">
        <ele>1983</ele>
        <time>2016-04-07T04:09:06Z</time>
      </trkpt>
      <trkpt lat="45.3088" lon="5.85351">
        <ele>1978</ele>
        <time>2016-04-07T04:11:06Z</time>
      </trkpt>
      <trkpt lat="45.30881" lon="5.85338">
        <ele>1971</ele>
        <time>2016-04-07T04:13:06Z</time>
      </trkpt>
      <trkpt lat="45.30883" lon="5.85332">
        <ele>1968</ele>
        <time>2016-04-07T04:15:06Z</time>
      </trkpt>
      <trkpt lat="45.3088" lon="5.85315">
        <ele>1956</ele>
        <time>2016-04-07T04:17:06Z</time>
      </trkpt>
      <trkpt lat="45.30886" lon="5.85304">
        <ele>1952</ele>
        <time>2016-04-07T04:19:06Z</time>
      </trkpt>
      <trkpt lat="45.309" lon="5.85296">
        <ele>1953</ele>
        <time>2016-04-07T04:21:06Z</time>
      </trkpt>
      <trkpt lat="45.30891" lon="5.85287">
        <ele>1943</ele>
        <time>2016-04-07T04:23:06Z</time>
      </trkpt>
      <trkpt lat="45.30878" lon="5.85278">
        <ele>1932</ele>
        <time>2016-04-07T04:25:06Z</time>
      </trkpt>
      <trkpt lat="45.30863" lon="5.8528">
        <ele>1926</ele>
        <time>2016-04-07T04:27:06Z</time>
      </trkpt>
      <trkpt lat="45.30844" lon="5.85291">
        <ele>1924</ele>
        <time>2016-04-07T04:29:06Z</time>
      </trkpt>
      <trkpt lat="45.30817" lon="5.85289">
        <ele>1914</ele>
        <time>2016-04-07T04:31:06Z</time>
      </trkpt>
      <trkpt lat="45.30833" lon="5.85272">
        <ele>1906</ele>
        <time>2016-04-07T04:33:06Z</time>
      </trkpt>
      <trkpt lat="45.30844" lon="5.85256">
        <ele>1900</ele>
        <time>2016-04-07T04:35:06Z</time>
      </trkpt>
      <trkpt lat="45.30845" lon="5.85238">
        <ele>1891</ele>
        <time>2016-04-07T04:37:06Z</time>
      </trkpt>
      <trkpt lat="45.30854" lon="5.8524">
        <ele>1896</ele>
        <time>2016-04-07T04:39:06Z</time>
      </trkpt>
      <trkpt lat="45.30863" lon="5.85235">
        <ele>1898</ele>
        <time>2016-04-07T04:41:06Z</time>
      </trkpt>
      <trkpt lat="45.30858" lon="5.8523">
        <ele>1893</ele>
        <time>2016-04-07T04:43:06Z</time>
      </trkpt>
      <trkpt lat="45.30863" lon="5.8523">
        <ele>1895</ele>
        <time>2016-04-07T04:45:06Z</time>
      </trkpt>
      <trkpt lat="45.30856" lon="5.85226">
        <ele>1890</ele>
        <time>2016-04-07T04:47:06Z</time>
      </trkpt>
      <trkpt lat="45.30861" lon="5.85223">
        <ele>1891</ele>
        <time>2016-04-07T04:49:06Z</time>
      </trkpt>
      <trkpt lat="45.30852" lon="5.85212">
        <ele>1881</ele>
        <time>2016-04-07T04:51:06Z</time>
      </trkpt>
      <trkpt lat="45.3086" lon="5.8521">
        <ele>1883</ele>
        <time>2016-04-07T04:53:06Z</time>
      </trkpt>
      <trkpt lat="45.30856" lon="5.85201">
        <ele>1877</ele>
        <time>2016-04-07T04:55:06Z</time>
      </trkpt>
      <trkpt lat="45.30858" lon="5.85189">
        <ele>1871</ele>
        <time>2016-04-07T04:57:06Z</time>
      </trkpt>
      <trkpt lat="45.3087" lon="5.85169">
        <ele>1866</ele>
        <time>2016-04-07T04:59:06Z</time>
      </trkpt>
      <trkpt lat="45.30893" lon="5.85123">
        <ele>1853</ele>
        <time>2016-04-07T05:01:06Z</time>
      </trkpt>
      <trkpt lat="45.30923" lon="5.85068">
        <ele>1839</ele>
        <time>2016-04-07T05:03:06Z</time>
      </trkpt>
      <trkpt lat="45.30945" lon="5.85041">
        <ele>1833</ele>
        <time>2016-04-07T05:05:06Z</time>
      </trkpt>
      <trkpt lat="45.30965" lon="5.85013">
        <ele>1825</ele>
        <time>2016-04-07T05:07:06Z</time>
      </trkpt>
      <trkpt lat="45.30975" lon="5.84998">
        <ele>1820</ele>
        <time>2016-04-07T05:09:06Z</time>
      </trkpt>
      <trkpt lat="45.30982" lon="5.84993">
        <ele>1820</ele>
        <time>2016-04-07T05:11:06Z</time>
      </trkpt>
      <trkpt lat="45.30988" lon="5.84979">
        <ele>1814</ele>
        <time>2016-04-07T05:13:06Z</time>
      </trkpt>
      <trkpt lat="45.30994" lon="5.84976">
        <ele>1814</ele>
        <time>2016-04-07T05:15:06Z</time>
      </trkpt>
      <trkpt lat="45.31004" lon="5.84977">
        <ele>1817</ele>
        <time>2016-04-07T05:17:06Z</time>
      </trkpt>
      <trkpt lat="45.3101" lon="5.8497">
        <ele>1814</ele>
        <time>2016-04-07T05:19:06Z</time>
      </trkpt>
      <trkpt lat="45.31011" lon="5.84963">
        <ele>1810</ele>
        <time>2016-04-07T05:21:06Z</time>
      </trkpt>
      <trkpt lat="45.31019" lon="5.84964">
        <ele>1812</ele>
        <time>2016-04-07T05:23:06Z</time>
      </trkpt>
      <trkpt lat="45.31027" lon="5.84958">
        <ele>1810</ele>
        <time>2016-04-07T05:25:06Z</time>
      </trkpt>
      <trkpt lat="45.31038" lon="5.84961">
        <ele>1813</ele>
        <time>2016-04-07T05:27:06Z</time>
      </trkpt>
      <trkpt lat="45.31048" lon="5.84951">
        <ele>1809</ele>
        <time>2016-04-07T05:29:06Z</time>
      </trkpt>
      <trkpt lat="45.31059" lon="5.84939">
        <ele>1804</ele>
        <time>2016-04-07T05:31:06Z</time>
      </trkpt>
      <trkpt lat="45.31066" lon="5.84935">
        <ele>1802</ele>
        <time>2016-04-07T05:33:06Z</time>
      </trkpt>
      <trkpt lat="45.31066" lon="5.84927">
        <ele>1798</ele>
        <time>2016-04-07T05:35:06Z</time>
      </trkpt>
      <trkpt lat="45.31091" lon="5.84913">
        <ele>1792</ele>
        <time>2016-04-07T05:37:06Z</time>
      </trkpt>
      <trkpt lat="45.31078" lon="5.84902">
        <ele>1786</ele>
        <time>2016-04-07T05:39:06Z</time>
      </trkpt>
      <trkpt lat="45.31072" lon="5.8489">
        <ele>1780</ele>
        <time>2016-04-07T05:41:06Z</time>
      </trkpt>
      <trkpt lat="45.31071" lon="5.84876">
        <ele>1773</ele>
        <time>2016-04-07T05:43:06Z</time>
      </trkpt>
      <trkpt lat="45.3106" lon="5.84872">
        <ele>1770</ele>
        <time>2016-04-07T05:45:06Z</time>
      </trkpt>
      <trkpt lat="45.31071" lon="5.84863">
        <ele>1767</ele>
        <time>2016-04-07T05:47:06Z</time>
      </trkpt>
      <trkpt lat="45.31046" lon="5.8485">
        <ele>1758</ele>
        <time>2016-04-07T05:49:06Z</time>
      </trkpt>
      <trkpt lat="45.31052" lon="5.84844">
        <ele>1756</ele>
        <time>2016-04-07T05:51:06Z</time>
      </trkpt>
      <trkpt lat="45.31048" lon="5.84831">
        <ele>1749</ele>
        <time>2016-04-07T05:53:06Z</time>
      </trkpt>
      <trkpt lat="45.31073" lon="5.84821">
        <ele>1748</ele>
        <time>2016-04-07T05:55:06Z</time>
      </trkpt>
      <trkpt lat="45.31066" lon="5.84807">
        <ele>1741</ele>
        <time>2016-04-07T05:57:06Z</time>
      </trkpt>
      <trkpt lat="45.31044" lon="5.84793">
        <ele>1733</ele>
        <time>2016-04-07T05:59:06Z</time>
      </trkpt>
      <trkpt lat="45.31077" lon="5.8477">
        <ele>1725</ele>
        <time>2016-04-07T06:01:06Z</time>
      </trkpt>
      <trkpt lat="45.31032" lon="5.8475">
        <ele>1714</ele>
        <time>2016-04-07T06:03:06Z</time>
      </trkpt>
      <trkpt lat="45.31057" lon="5.84728">
        <ele>1703</ele>
        <time>2016-04-07T06:05:06Z</time>
      </trkpt>
      <trkpt lat="45.3102" lon="5.84711">
        <ele>1693</ele>
        <time>2016-04-07T06:07:06Z</time>
      </trkpt>
      <trkpt lat="45.31036" lon="5.84671">
        <ele>1673</ele>
        <time>2016-04-07T06:09:06Z</time>
      </trkpt>
      <trkpt lat="45.31068" lon="5.84625">
        <ele>1652</ele>
        <time>2016-04-07T06:11:06Z</time>
      </trkpt>
      <trkpt lat="45.31055" lon="5.84601">
        <ele>1640</ele>
        <time>2016-04-07T06:13:06Z</time>
      </trkpt>
      <trkpt lat="45.31043" lon="5.84589">
        <ele>1635</ele>
        <time>2016-04-07T06:15:06Z</time>
      </trkpt>
      <trkpt lat="45.31052" lon="5.84574">
        <ele>1628</ele>
        <time>2016-04-07T06:17:06Z</time>
      </trkpt>
      <trkpt lat="45.31042" lon="5.84565">
        <ele>1624</ele>
        <time>2016-04-07T06:19:06Z</time>
      </trkpt>
      <trkpt lat="45.3106" lon="5.84556">
        <ele>1619</ele>
        <time>2016-04-07T06:21:06Z</time>
      </trkpt>
      <trkpt lat="45.31035" lon="5.84527">
        <ele>1608</ele>
        <time>2016-04-07T06:23:06Z</time>
      </trkpt>
      <trkpt lat="45.31051" lon="5.84522">
        <ele>1604</ele>
        <time>2016-04-07T06:25:06Z</time>
      </trkpt>
      <trkpt lat="45.31032" lon="5.84502">
        <ele>1598</ele>
        <time>2016-04-07T06:27:06Z</time>
      </trkpt>
      <trkpt lat="45.31053" lon="5.84496">
        <ele>1592</ele>
        <time>2016-04-07T06:29:06Z</time>
      </trkpt>
      <trkpt lat="45.31037" lon="5.84479">
        <ele>1588</ele>
        <time>2016-04-07T06:31:06Z</time>
      </trkpt>
      <trkpt lat="45.31021" lon="5.84463">
        <ele>1584</ele>
        <time>2016-04-07T06:33:06Z</time>
      </trkpt>
      <trkpt lat="45.31015" lon="5.8446">
        <ele>1584</ele>
        <time>2016-04-07T06:35:06Z</time>
      </trkpt>
      <trkpt lat="45.31042" lon="5.84447">
        <ele>1574</ele>
        <time>2016-04-07T06:37:06Z</time>
      </trkpt>
      <trkpt lat="45.31008" lon="5.84418">
        <ele>1571</ele>
        <time>2016-04-07T06:39:06Z</time>
      </trkpt>
      <trkpt lat="45.31015" lon="5.84409">
        <ele>1566</ele>
        <time>2016-04-07T06:41:06Z</time>
      </trkpt>
      <trkpt lat="45.31027" lon="5.84409">
        <ele>1563</ele>
        <time>2016-04-07T06:43:06Z</time>
      </trkpt>
      <trkpt lat="45.31032" lon="5.84404">
        <ele>1561</ele>
        <time>2016-04-07T06:45:06Z</time>
      </trkpt>
      <trkpt lat="45.31024" lon="5.84398">
        <ele>1561</ele>
        <time>2016-04-07T06:47:06Z</time>
      </trkpt>
      <trkpt lat="45.3102" lon="5.84384">
        <ele>1557</ele>
        <time>2016-04-07T06:49:06Z</time>
      </trkpt>
      <trkpt lat="45.30992" lon="5.8437">
        <ele>1557</ele>
        <time>2016-04-07T06:51:06Z</time>
      </trkpt>
      <trkpt lat="45.31005" lon="5.84357">
        <ele>1553</ele>
        <time>2016-04-07T06:53:06Z</time>
      </trkpt>
      <trkpt lat="45.31013" lon="5.84338">
        <ele>1545</ele>
        <time>2016-04-07T06:55:06Z</time>
      </trkpt>
      <trkpt lat="45.30982" lon="5.84325">
        <ele>1543</ele>
        <time>2016-04-07T06:57:06Z</time>
      </trkpt>
      <trkpt lat="45.31003" lon="5.84287">
        <ele>1537</ele>
        <time>2016-04-07T06:59:06Z</time>
      </trkpt>
      <trkpt lat="45.31009" lon="5.84263">
        <ele>1531</ele>
        <time>2016-04-07T07:01:06Z</time>
      </trkpt>
      <trkpt lat="45.31023" lon="5.84226">
        <ele>1527</ele>
        <time>2016-04-07T07:03:06Z</time>
      </trkpt>
      <trkpt lat="45.30988" lon="5.84218">
        <ele>1526</ele>
        <time>2016-04-07T07:05:06Z</time>
      </trkpt>
      <trkpt lat="45.30951" lon="5.84211">
        <ele>1518</ele>
        <time>2016-04-07T07:07:06Z</time>
      </trkpt>
      <trkpt lat="45.30922" lon="5.84207">
        <ele>1511</ele>
        <time>2016-04-07T07:09:06Z</time>
      </trkpt>
      <trkpt lat="45.30896" lon="5.84207">
        <ele>1503</ele>
        <time>2016-04-07T07:11:06Z</time>
      </trkpt>
      <trkpt lat="45.30862" lon="5.84207">
        <ele>1493</ele>
        <time>2016-04-07T07:13:06Z</time>
      </trkpt>
      <trkpt lat="45.30835" lon="5.842">
        <ele>1484</ele>
        <time>2016-04-07T07:15:06Z</time>
      </trkpt>
      <trkpt lat="45.30849" lon="5.84182">
        <ele>1485</ele>
        <time>2016-04-07T07:17:06Z</time>
      </trkpt>
      <trkpt lat="45.3085" lon="5.84155">
        <ele>1483</ele>
        <time>2016-04-07T07:19:06Z</time>
      </trkpt>
      <trkpt lat="45.30851" lon="5.84131">
        <ele>1483</ele>
        <time>2016-04-07T07:21:06Z</time>
      </trkpt>
      <trkpt lat="45.30834" lon="5.84089">
        <ele>1477</ele>
        <time>2016-04-07T07:23:06Z</time>
      </trkpt>
      <trkpt lat="45.30824" lon="5.84071">
        <ele>1476</ele>
        <time>2016-04-07T07:25:06Z</time>
      </trkpt>
      <trkpt lat="45.3082" lon="5.84059">
        <ele>1476</ele>
        <time>2016-04-07T07:27:06Z</time>
      </trkpt>
      <trkpt lat="45.30803" lon="5.84046">
        <ele>1472</ele>
        <time>2016-04-07T07:29:06Z</time>
      </trkpt>
      <trkpt lat="45.308" lon="5.84035">
        <ele>1473</ele>
        <time>2016-04-07T07:31:06Z</time>
      </trkpt>
      <trkpt lat="45.30798" lon="5.84022">
        <ele>1474</ele>
        <time>2016-04-07T07:33:06Z</time>
      </trkpt>
      <trkpt lat="45.30781" lon="5.84009">
        <ele>1469</ele>
        <time>2016-04-07T07:35:06Z</time>
      </trkpt>
      <trkpt lat="45.3076" lon="5.83985">
        <ele>1465</ele>
        <time>2016-04-07T07:37:06Z</time>
      </trkpt>
      <trkpt lat="45.30752" lon="5.83974">
        <ele>1465</ele>
        <time>2016-04-07T07:39:06Z</time>
      </trkpt>
      <trkpt lat="45.30677" lon="5.83919">
        <ele>1452</ele>
        <time>2016-04-07T07:41:06Z</time>
      </trkpt>
      <trkpt lat="45.3061" lon="5.8386">
        <ele>1450</ele>
        <time>2016-04-07T07:43:06Z</time>
      </trkpt>
      <trkpt lat="45.30567" lon="5.83815">
        <ele>1450</ele>
        <time>2016-04-07T07:45:06Z</time>
      </trkpt>
      <trkpt lat="45.30515" lon="5.8375">
        <ele>1451</ele>
        <time>2016-04-07T07:47:06Z</time>
      </trkpt>
      <trkpt lat="45.30388" lon="5.83725">
        <ele>1441</ele>
        <time>2016-04-07T07:49:06Z</time>
      </trkpt>
      <trkpt lat="45.30331" lon="5.83716">
        <ele>1433</ele>
        <time>2016-04-07T07:51:06Z</time>
      </trkpt>
      <trkpt lat="45.30243" lon="5.83693">
        <ele>1429</ele>
        <time>2016-04-07T07:53:06Z</time>
      </trkpt>
      <trkpt lat="45.30248" lon="5.83672">
        <ele>1436</ele>
        <time>2016-04-07T07:55:06Z</time>
      </trkpt>
      <trkpt lat="45.30268" lon="5.83652">
        <ele>1439</ele>
        <time>2016-04-07T07:57:06Z</time>
      </trkpt>
      <trkpt lat="45.30282" lon="5.83619">
        <ele>1437</ele>
        <time>2016-04-07T07:59:06Z</time>
      </trkpt>
      <trkpt lat="45.30285" lon="5.83593">
        <ele>1434</ele>
        <time>2016-04-07T08:01:06Z</time>
      </trkpt>
      <trkpt lat="45.30316" lon="5.83557">
        <ele>1430</ele>
        <time>2016-04-07T08:03:06Z</time>
      </trkpt>
      <trkpt lat="45.30345" lon="5.8352">
        <ele>1426</ele>
        <time>2016-04-07T08:05:06Z</time>
      </trkpt>
      <trkpt lat="45.30358" lon="5.83503">
        <ele>1425</ele>
        <time>2016-04-07T08:07:06Z</time>
      </trkpt>
      <trkpt lat="45.30367" lon="5.83474">
        <ele>1421</ele>
        <time>2016-04-07T08:09:06Z</time>
      </trkpt>
      <trkpt lat="45.30361" lon="5.83473">
        <ele>1418</ele>
        <time>2016-04-07T08:11:06Z</time>
      </trkpt>
      <trkpt lat="45.30334" lon="5.83504">
        <ele>1416</ele>
        <time>2016-04-07T08:13:06Z</time>
      </trkpt>
      <trkpt lat="45.30309" lon="5.83532">
        <ele>1422</ele>
        <time>2016-04-07T08:15:06Z</time>
      </trkpt>
      <trkpt lat="45.30278" lon="5.83549">
        <ele>1423</ele>
        <time>2016-04-07T08:17:06Z</time>
      </trkpt>
      <trkpt lat="45.30256" lon="5.83554">
        <ele>1422</ele>
        <time>2016-04-07T08:19:06Z</time>
      </trkpt>
      <trkpt lat="45.30235" lon="5.83551">
        <ele>1424</ele>
        <time>2016-04-07T08:21:06Z</time>
      </trkpt>
      <trkpt lat="45.3022" lon="5.83541">
        <ele>1424</ele>
        <time>2016-04-07T08:23:06Z</time>
      </trkpt>
      <trkpt lat="45.30199" lon="5.83522">
        <ele>1422</ele>
        <time>2016-04-07T08:25:06Z</time>
      </trkpt>
      <trkpt lat="45.3019" lon="5.83504">
        <ele>1419</ele>
        <time>2016-04-07T08:27:06Z</time>
      </trkpt>
      <trkpt lat="45.30183" lon="5.83483">
        <ele>1416</ele>
        <time>2016-04-07T08:29:06Z</time>
      </trkpt>
      <trkpt lat="45.3017" lon="5.8343">
        <ele>1411</ele>
        <time>2016-04-07T08:31:06Z</time>
      </trkpt>
      <trkpt lat="45.30167" lon="5.834">
        <ele>1410</ele>
        <time>2016-04-07T08:33:06Z</time>
      </trkpt>
      <trkpt lat="45.3018" lon="5.83418">
        <ele>1408</ele>
        <time>2016-04-07T08:35:06Z</time>
      </trkpt>
      <trkpt lat="45.30215" lon="5.83436">
        <ele>1405</ele>
        <time>2016-04-07T08:37:06Z</time>
      </trkpt>
      <trkpt lat="45.30274" lon="5.8339">
        <ele>1393</ele>
        <time>2016-04-07T08:39:06Z</time>
      </trkpt>
      <trkpt lat="45.30313" lon="5.83348">
        <ele>1384</ele>
        <time>2016-04-07T08:41:06Z</time>
      </trkpt>
      <trkpt lat="45.30385" lon="5.83293">
        <ele>1380</ele>
        <time>2016-04-07T08:43:06Z</time>
      </trkpt>
      <trkpt lat="45.30392" lon="5.83218">
        <ele>1367</ele>
        <time>2016-04-07T08:45:06Z</time>
      </trkpt>
      <trkpt lat="45.30431" lon="5.8308">
        <ele>1352</ele>
        <time>2016-04-07T08:47:06Z</time>
      </trkpt>
      <trkpt lat="45.30452" lon="5.82986">
        <ele>1345</ele>
        <time>2016-04-07T08:49:06Z</time>
      </trkpt>
      <trkpt lat="45.3047" lon="5.82935">
        <ele>1338</ele>
        <time>2016-04-07T08:51:06Z</time>
      </trkpt>
      <trkpt lat="45.30466" lon="5.82917">
        <ele>1335</ele>
        <time>2016-04-07T08:53:06Z</time>
      </trkpt>
      <trkpt lat="45.30443" lon="5.82907">
        <ele>1331</ele>
        <time>2016-04-07T08:55:06Z</time>
      </trkpt>
      <trkpt lat="45.30458" lon="5.82831">
        <ele>1321</ele>
        <time>2016-04-07T08:57:06Z</time>
      </trkpt>
      <trkpt lat="45.30472" lon="5.82761">
        <ele>1310</ele>
        <time>2016-04-07T08:59:06Z</time>
      </trkpt>
      <trkpt lat="45.30488" lon="5.8266">
        <ele>1298</ele>
        <time>2016-04-07T09:01:06Z</time>
      </trkpt>
      <trkpt lat="45.30498" lon="5.82527">
        <ele>1287</ele>
        <time>2016-04-07T09:03:06Z</time>
      </trkpt>
      <trkpt lat="45.3052" lon="5.82473">
        <ele>1283</ele>
        <time>2016-04-07T09:05:06Z</time>
      </trkpt>
      <trkpt lat="45.30533" lon="5.824">
        <ele>1277</ele>
        <time>2016-04-07T09:07:06Z</time>
      </trkpt>
      <trkpt lat="45.30539" lon="5.82346">
        <ele>1270</ele>
        <time>2016-04-07T09:09:06Z</time>
      </trkpt>
      <trkpt lat="45.30546" lon="5.82285">
        <ele>1260</ele>
        <time>2016-04-07T09:11:06Z</time>
      </trkpt>
      <trkpt lat="45.30532" lon="5.82187">
        <ele>1245</ele>
        <time>2016-04-07T09:13:06Z</time>
      </trkpt>
      <trkpt lat="45.30523" lon="5.82101">
        <ele>1231</ele>
        <time>2016-04-07T09:15:06Z</time>
      </trkpt>
      <trkpt lat="45.30518" lon="5.82045">
        <ele>1223</ele>
        <time>2016-04-07T09:17:06Z</time>
      </trkpt>
      <trkpt lat="45.30513" lon="5.82021">
        <ele>1218</ele>
        <time>2016-04-07T09:19:06Z</time>
      </trkpt>
      <trkpt lat="45.30502" lon="5.81968">
        <ele>1209</ele>
        <time>2016-04-07T09:21:06Z</time>
      </trkpt>
      <trkpt lat="45.30502" lon="5.8192">
        <ele>1203</ele>
        <time>2016-04-07T09:23:06Z</time>
      </trkpt>
      <trkpt lat="45.30508" lon="5.81869">
        <ele>1198</ele>
        <time>2016-04-07T09:25:06Z</time>
      </trkpt>
      <trkpt lat="45.30534" lon="5.81809">
        <ele>1195</ele>
        <time>2016-04-07T09:27:06Z</time>
      </trkpt>
      <trkpt lat="45.30582" lon="5.81709">
        <ele>1172</ele>
        <time>2016-04-07T09:29:06Z</time>
      </trkpt>
      <trkpt lat="45.30643" lon="5.8159">
        <ele>1136</ele>
        <time>2016-04-07T09:31:06Z</time>
      </trkpt>
      <trkpt lat="45.30653" lon="5.81565">
        <ele>1130</ele>
        <time>2016-04-07T09:33:06Z</time>
      </trkpt>
      <trkpt lat="45.30631" lon="5.81416">
        <ele>1096</ele>
        <time>2016-04-07T09:35:06Z</time>
      </trkpt>
      <trkpt lat="45.30653" lon="5.81353">
        <ele>1086</ele>
        <time>2016-04-07T09:37:06Z</time>
      </trkpt>
      <trkpt lat="45.30668" lon="5.81354">
        <ele>1088</ele>
        <time>2016-04-07T09:39:06Z</time>
      </trkpt>
      <trkpt lat="45.30687" lon="5.81381">
        <ele>1088</ele>
        <time>2016-04-07T09:41:06Z</time>
      </trkpt>
      <trkpt lat="45.30713" lon="5.81393">
        <ele>1084</ele>
        <time>2016-04-07T09:43:06Z</time>
      </trkpt>
      <trkpt lat="45.30731" lon="5.81394">
        <ele>1080</ele>
        <time>2016-04-07T09:45:06Z</time>
      </trkpt>
      <trkpt lat="45.30747" lon="5.81384">
        <ele>1074</ele>
        <time>2016-04-07T09:47:06Z</time>
      </trkpt>
      <trkpt lat="45.30762" lon="5.81365">
        <ele>1068</ele>
        <time>2016-04-07T09:49:06Z</time>
      </trkpt>
      <trkpt lat="45.3078" lon="5.8134">
        <ele>1061</ele>
        <time>2016-04-07T09:51:06Z</time>
      </trkpt>
      <trkpt lat="45.30838" lon="5.81307">
        <ele>1045</ele>
        <time>2016-04-07T09:53:06Z</time>
      </trkpt>
      <trkpt lat="45.3088" lon="5.81282">
        <ele>1035</ele>
        <time>2016-04-07T09:55:06Z</time>
      </trkpt>
      <trkpt lat="45.30918" lon="5.81221">
        <ele>1016</ele>
        <time>2016-04-07T09:57:06Z</time>
      </trkpt>
      <trkpt lat="45.30928" lon="5.81205">
        <ele>1012</ele>
        <time>2016-04-07T09:59:06Z</time>
      </trkpt>
      <trkpt lat="45.30971" lon="5.8117">
        <ele>1001</ele>
        <time>2016-04-07T10:01:06Z</time>
      </trkpt>
      <trkpt lat="45.30999" lon="5.81157">
        <ele>997</ele>
        <time>2016-04-07T10:03:06Z</time>
      </trkpt>
      <trkpt lat="45.31043" lon="5.81128">
        <ele>987</ele>
        <time>2016-04-07T10:05:06Z</time>
      </trkpt>
      <trkpt lat="45.31063" lon="5.81123">
        <ele>985</ele>
        <time>2016-04-07T10:07:06Z</time>
      </trkpt>
      <trkpt lat="45.3108" lon="5.81107">
        <ele>980</ele>
        <time>2016-04-07T10:09:06Z</time>
      </trkpt>
      <trkpt lat="45.31095" lon="5.81085">
        <ele>973</ele>
        <time>2016-04-07T10:11:06Z</time>
      </trkpt>
      <trkpt lat="45.31142" lon="5.81045">
        <ele>962</ele>
        <time>2016-04-07T10:13:06Z</time>
      </trkpt>
      <trkpt lat="45.31152" lon="5.8101">
        <ele>950</ele>
        <time>2016-04-07T10:15:06Z</time>
      </trkpt>
      <trkpt lat="45.31151" lon="5.80998">
        <ele>947</ele>
        <time>2016-04-07T10:17:06Z</time>
      </trkpt>
      <trkpt lat="45.31149" lon="5.80988">
        <ele>947</ele>
        <time>2016-04-07T10:19:06Z</time>
      </trkpt>
      <trkpt lat="45.31127" lon="5.8096">
        <ele>950</ele>
        <time>2016-04-07T10:21:06Z</time>
      </trkpt>
      <trkpt lat="45.31127" lon="5.80948">
        <ele>949</ele>
        <time>2016-04-07T10:23:06Z</time>
      </trkpt>
      <trkpt lat="45.31172" lon="5.80913">
        <ele>943</ele>
        <time>2016-04-07T10:25:06Z</time>
      </trkpt>
      <trkpt lat="45.31177" lon="5.80885">
        <ele>943</ele>
        <time>2016-04-07T10:27:06Z</time>
      </trkpt>
      <trkpt lat="45.31175" lon="5.80831">
        <ele>945</ele>
        <time>2016-04-07T10:29:06Z</time>
      </trkpt>
      <trkpt lat="45.31175" lon="5.80779">
        <ele>946</ele>
        <time>2016-04-07T10:31:06Z</time>
      </trkpt>
      <trkpt lat="45.31174" lon="5.80724">
        <ele>947</ele>
        <time>2016-04-07T10:33:06Z</time>
      </trkpt>
      <trkpt lat="45.31178" lon="5.80691">
        <ele>947</ele>
        <time>2016-04-07T10:35:06Z</time>
      </trkpt>
      <trkpt lat="45.31184" lon="5.80684">
        <ele>946</ele>
        <time>2016-04-07T10:37:06Z</time>
      </trkpt>
      <trkpt lat="45.31202" lon="5.80687">
        <ele>944</ele>
        <time>2016-04-07T10:39:06Z</time>
      </trkpt>
      <trkpt lat="45.31245" lon="5.80673">
        <ele>940</ele>
        <time>2016-04-07T10:41:06Z</time>
      </trkpt>
      <trkpt lat="45.31283" lon="5.80667">
        <ele>938</ele>
        <time>2016-04-07T10:43:06Z</time>
      </trkpt>
      <trkpt lat="45.31302" lon="5.8067">
        <ele>938</ele>
        <time>2016-04-07T10:45:06Z</time>
      </trkpt>
      <trkpt lat="45.31359" lon="5.80652">
        <ele>934</ele>
        <time>2016-04-07T10:47:06Z</time>
      </trkpt>
      <trkpt lat="45.31365" lon="5.80631">
        <ele>933</ele>
        <time>2016-04-07T10:49:06Z</time>
      </trkpt>
      <trkpt lat="45.31378" lon="5.80612">
        <ele>932</ele>
        <time>2016-04-07T10:51:06Z</time>
      </trkpt>
      <trkpt lat="45.31391" lon="5.80578">
        <ele>930</ele>
        <time>2016-04-07T10:53:06Z</time>
      </trkpt>
      <trkpt lat="45.31419" lon="5.80555">
        <ele>928</ele>
        <time>2016-04-07T10:55:06Z</time>
      </trkpt>
      <trkpt lat="45.31446" lon="5.80548">
        <ele>926</ele>
        <time>2016-04-07T10:57:06Z</time>
      </trkpt>
      <trkpt lat="45.31461" lon="5.80535">
        <ele>925</ele>
        <time>2016-04-07T10:59:06Z</time>
      </trkpt>
      <trkpt lat="45.31481" lon="5.80534">
        <ele>923</ele>
        <time>2016-04-07T11:01:06Z</time>
      </trkpt>
      <trkpt lat="45.31509" lon="5.80557">
        <ele>920</ele>
        <time>2016-04-07T11:03:06Z</time>
      </trkpt>
      <trkpt lat="45.31531" lon="5.80575">
        <ele>919</ele>
        <time>2016-04-07T11:05:06Z</time>
      </trkpt>
      <trkpt lat="45.31567" lon="5.80589">
        <ele>917</ele>
        <time>2016-04-07T11:07:06Z</time>
      </trkpt>
      <trkpt lat="45.316" lon="5.80603">
        <ele>914</ele>
        <time>2016-04-07T11:09:06Z</time>
      </trkpt>
      <trkpt lat="45.3164" lon="5.80625">
        <ele>908</ele>
        <time>2016-04-07T11:11:06Z</time>
      </trkpt>
      <trkpt lat="45.31678" lon="5.80657">
        <ele>902</ele>
        <time>2016-04-07T11:13:06Z</time>
      </trkpt>
      <trkpt lat="45.31698" lon="5.80674">
        <ele>900</ele>
        <time>2016-04-07T11:15:06Z</time>
      </trkpt>
      <trkpt lat="45.3172" lon="5.80699">
        <ele>900</ele>
        <time>2016-04-07T11:17:06Z</time>
      </trkpt>
      <trkpt lat="45.3182" lon="5.80735">
        <ele>894</ele>
        <time>2016-04-07T11:19:06Z</time>
      </trkpt>
      <trkpt lat="45.31824" lon="5.80711">
        <ele>894</ele>
        <time>2016-04-07T11:21:06Z</time>
      </trkpt>
      <trkpt lat="45.31837" lon="5.80687">
        <ele>893</ele>
        <time>2016-04-07T11:23:06Z</time>
      </trkpt>
      <trkpt lat="45.31857" lon="5.80675">
        <ele>891</ele>
        <time>2016-04-07T11:25:06Z</time>
      </trkpt>
      <trkpt lat="45.31911" lon="5.8067">
        <ele>888</ele>
        <time>2016-04-07T11:27:06Z</time>
      </trkpt>
      <trkpt lat="45.31958" lon="5.80656">
        <ele>888</ele>
        <time>2016-04-07T11:29:06Z</time>
      </trkpt>
      <trkpt lat="45.32015" lon="5.80653">
        <ele>886</ele>
        <time>2016-04-07T11:31:06Z</time>
      </trkpt>
      <trkpt lat="45.32083" lon="5.80651">
        <ele>884</ele>
        <time>2016-04-07T11:33:06Z</time>
      </trkpt>
      <trkpt lat="45.32186" lon="5.80652">
        <ele>883</ele>
        <time>2016-04-07T11:35:06Z</time>
      </trkpt>
      <trkpt lat="45.32259" lon="5.80652">
        <ele>881</ele>
        <time>2016-04-07T11:37:06Z</time>
      </trkpt>
      <trkpt lat="45.32335" lon="5.80644">
        <ele>874</ele>
        <time>2016-04-07T11:39:06Z</time>
      </trkpt>
    </trkseg>
  </trk>
</gpx>